createdAt,value
2023-03-10T00:01:13.864Z,99183.31
2023-03-10T00:03:41.025Z,99176.22
2023-03-10T00:06:08.586Z,99166.75
2023-03-10T00:08:35.318Z,99178.91
2023-03-10T00:11:02.159Z,99163.44
2023-03-10T00:13:28.705Z,99155.84
2023-03-10T00:15:55.305Z,99164.47
2023-03-10T00:18:21.923Z,99149.25
2023-03-10T00:20:51.710Z,99144.19
2023-03-10T00:23:18.936Z,99142.56
2023-03-10T00:25:45.490Z,99131.84
2023-03-10T00:28:12.376Z,99137.53
2023-03-10T00:30:38.945Z,99126.63
2023-03-10T00:33:07.560Z,99107.88
2023-03-10T00:35:34.160Z,99113.91
2023-03-10T00:38:02.600Z,99109.41
2023-03-10T00:40:29.194Z,99090.97
2023-03-10T00:42:56.528Z,99096.81
2023-03-10T00:45:23.084Z,99095.25
2023-03-10T00:47:49.670Z,99090.19
2023-03-10T00:50:16.422Z,99086.97
2023-03-10T00:52:42.992Z,99077.19
2023-03-10T00:55:09.672Z,99069.63
2023-03-10T00:57:36.525Z,99070.34
2023-03-10T01:00:05.000Z,99055.66
2023-03-10T01:02:31.554Z,99053.97
2023-03-10T01:04:58.151Z,99053.69
2023-03-10T01:07:24.700Z,99046.09
2023-03-10T01:09:51.268Z,99026.53
2023-03-10T01:12:17.978Z,99018.56
2023-03-10T01:14:44.632Z,99016.22
2023-03-10T01:17:11.231Z,99009.06
2023-03-10T01:19:37.788Z,99012.78
2023-03-10T01:22:04.415Z,98997.88
2023-03-10T01:24:31.132Z,98993.47
2023-03-10T01:26:57.669Z,98987.78
2023-03-10T01:29:24.375Z,98989.91
2023-03-10T01:31:50.973Z,98985.34
2023-03-10T01:34:17.570Z,98971.81
2023-03-10T01:36:44.112Z,98964.66
2023-03-10T01:39:10.777Z,98966.03
2023-03-10T01:41:41.278Z,98955.16
2023-03-10T01:44:15.375Z,98945.97
2023-03-10T01:46:45.525Z,98955.53
2023-03-10T01:49:23.922Z,98940.03
2023-03-10T01:51:55.935Z,98921.63
2023-03-10T01:54:26.425Z,98927.13
2023-03-10T01:56:54.131Z,98930.56
2023-03-10T01:59:21.141Z,98920.34
2023-03-10T02:01:49.464Z,98908.34
2023-03-10T02:04:23.408Z,98909.88
2023-03-10T02:06:50.899Z,98897.91
2023-03-10T02:09:18.760Z,98893.47
2023-03-10T02:11:47.340Z,98871.53
2023-03-10T02:14:14.294Z,98872.53
2023-03-10T02:16:41.130Z,98871.13
2023-03-10T02:19:15.347Z,98868.94
2023-03-10T02:21:45.665Z,98855.97
2023-03-10T02:24:19.493Z,98852.84
2023-03-10T02:26:53.401Z,98845.25
2023-03-10T02:29:58.764Z,98839.09
2023-03-10T02:32:29.709Z,98830.41
2023-03-10T02:34:56.461Z,98821.97
2023-03-10T02:37:30.879Z,98816.00
2023-03-10T02:39:57.928Z,98815.75
2023-03-10T02:42:27.202Z,98810.38
2023-03-10T02:44:54.223Z,98811.81
2023-03-10T02:47:20.788Z,98788.66
2023-03-10T02:49:47.514Z,98779.13
2023-03-10T02:52:27.163Z,98788.41
2023-03-10T02:54:53.841Z,98788.41
2023-03-10T02:57:21.062Z,98782.69
2023-03-10T02:59:47.752Z,98777.44
2023-03-10T03:02:14.916Z,98764.00
2023-03-10T03:04:41.492Z,98767.81
2023-03-10T03:07:08.196Z,98750.69
2023-03-10T03:09:35.725Z,98748.16
2023-03-10T03:12:02.449Z,98745.81
2023-03-10T03:14:29.793Z,98749.03
2023-03-10T03:16:57.052Z,98740.97
2023-03-10T03:19:23.727Z,98748.38
2023-03-10T03:21:52.422Z,98736.22
2023-03-10T03:24:21.161Z,98728.44
2023-03-10T03:26:48.204Z,98708.53
2023-03-10T03:29:18.468Z,98698.50
2023-03-10T03:31:45.212Z,98701.50
2023-03-10T03:34:20.820Z,98694.97
2023-03-10T03:36:49.050Z,98696.22
2023-03-10T03:39:20.753Z,98696.06
2023-03-10T03:41:53.464Z,98687.06
2023-03-10T03:44:20.285Z,98687.66
2023-03-10T03:46:49.052Z,98674.16
2023-03-10T03:49:15.858Z,98678.34
2023-03-10T03:51:43.156Z,98674.44
2023-03-10T03:54:10.563Z,98670.31
2023-03-10T03:56:39.272Z,98658.41
2023-03-10T03:59:06.497Z,98644.81
2023-03-10T04:01:34.003Z,98639.34
2023-03-10T04:04:03.031Z,98649.22
2023-03-10T04:06:30.094Z,98647.38
2023-03-10T04:08:56.767Z,98641.22
2023-03-10T04:11:25.702Z,98647.13
2023-03-10T04:13:52.283Z,98648.03
2023-03-10T04:16:19.772Z,98649.88
2023-03-10T04:18:46.926Z,98642.47
2023-03-10T04:21:17.590Z,98633.56
2023-03-10T04:23:46.013Z,98627.31
2023-03-10T04:26:16.256Z,98627.38
2023-03-10T04:28:43.164Z,98617.53
2023-03-10T04:31:16.949Z,98625.28
2023-03-10T04:33:45.518Z,98635.44
2023-03-10T04:36:13.159Z,98612.31
2023-03-10T04:38:39.927Z,98619.38
2023-03-10T04:41:08.489Z,98615.41
2023-03-10T04:43:42.402Z,98602.28
2023-03-10T04:46:10.225Z,98588.72
2023-03-10T04:48:37.541Z,98593.72
2023-03-10T04:51:06.831Z,98577.25
2023-03-10T04:53:39.453Z,98581.88
2023-03-10T04:56:08.075Z,98575.19
2023-03-10T04:58:36.871Z,98579.88
2023-03-10T05:01:09.390Z,98576.28
2023-03-10T05:03:39.074Z,98568.78
2023-03-10T05:06:15.962Z,98568.28
2023-03-10T05:08:46.289Z,98553.09
2023-03-10T05:11:13.313Z,98561.88
2023-03-10T05:13:40.111Z,98544.41
2023-03-10T05:16:15.232Z,98540.41
2023-03-10T05:18:42.010Z,98552.53
2023-03-10T05:21:08.985Z,98545.31
2023-03-10T05:23:35.642Z,98543.09
2023-03-10T05:26:06.621Z,98534.50
2023-03-10T05:28:33.358Z,98542.88
2023-03-10T05:31:00.411Z,98534.59
2023-03-10T05:33:30.221Z,98534.59
2023-03-10T05:35:58.691Z,98527.25
2023-03-10T05:38:25.429Z,98526.50
2023-03-10T05:40:52.352Z,98515.53
2023-03-10T05:43:19.436Z,98518.50
2023-03-10T05:45:54.945Z,98512.81
2023-03-10T05:48:21.645Z,98512.19
2023-03-10T05:51:06.192Z,98506.19
2023-03-10T05:53:34.003Z,98497.78
2023-03-10T05:56:05.683Z,98499.50
2023-03-10T05:58:32.274Z,98505.38
2023-03-10T06:01:02.293Z,98513.25
2023-03-10T06:03:30.418Z,98495.13
2023-03-10T06:05:57.865Z,98507.66
2023-03-10T06:08:25.207Z,98512.84
2023-03-10T06:10:51.791Z,98510.13
2023-03-10T06:13:21.276Z,98500.28
2023-03-10T06:15:52.288Z,98488.31
2023-03-10T06:18:19.856Z,98492.41
2023-03-10T06:20:47.960Z,98495.06
2023-03-10T06:23:15.569Z,98498.06
2023-03-10T06:25:42.616Z,98496.28
2023-03-10T06:28:10.082Z,98495.94
2023-03-10T06:30:36.956Z,98497.97
2023-03-10T06:33:03.772Z,98494.56
2023-03-10T06:35:31.391Z,98496.09
2023-03-10T06:37:57.940Z,98496.41
2023-03-10T06:40:24.533Z,98485.25
2023-03-10T06:42:51.102Z,98478.28
2023-03-10T06:45:17.890Z,98481.22
2023-03-10T06:47:44.819Z,98477.28
2023-03-10T06:50:13.751Z,98470.25
2023-03-10T06:52:42.550Z,98465.13
2023-03-10T06:55:10.808Z,98477.41
2023-03-10T06:57:37.915Z,98476.25
2023-03-10T07:00:05.682Z,98480.72
2023-03-10T07:02:32.241Z,98475.25
2023-03-10T07:04:59.066Z,98479.72
2023-03-10T07:07:26.107Z,98475.13
2023-03-10T07:09:52.658Z,98478.25
2023-03-10T07:12:19.218Z,98484.09
2023-03-10T07:14:45.774Z,98478.59
2023-03-10T07:17:12.430Z,98471.72
2023-03-10T07:19:38.993Z,98476.28
2023-03-10T07:22:05.639Z,98470.91
2023-03-10T07:24:32.478Z,98480.91
2023-03-10T07:27:00.265Z,98481.47
2023-03-10T07:29:27.146Z,98478.72
2023-03-10T07:31:53.990Z,98477.69
2023-03-10T07:34:20.573Z,98470.91
2023-03-10T07:36:47.296Z,98463.38
2023-03-10T07:39:13.838Z,98477.53
2023-03-10T07:41:40.460Z,98471.59
2023-03-10T07:44:07.116Z,98469.53
2023-03-10T07:46:33.799Z,98473.53
2023-03-10T07:49:04.235Z,98460.13
2023-03-10T07:51:31.576Z,98467.31
2023-03-10T07:53:58.113Z,98471.88
2023-03-10T07:56:24.710Z,98459.41
2023-03-10T07:58:51.265Z,98477.09
2023-03-10T08:01:20.307Z,98467.59
2023-03-10T08:03:47.020Z,98460.63
2023-03-10T08:06:23.234Z,98469.34
2023-03-10T08:08:50.377Z,98449.19
2023-03-10T08:11:17.107Z,98459.50
2023-03-10T08:13:46.168Z,98459.63
2023-03-10T08:16:14.984Z,98460.28
2023-03-10T08:18:41.846Z,98458.38
2023-03-10T08:21:08.958Z,98456.06
2023-03-10T08:23:36.815Z,98454.34
2023-03-10T08:26:10.750Z,98451.22
2023-03-10T08:28:39.038Z,98450.44
2023-03-10T08:31:11.696Z,98459.94
2023-03-10T08:33:38.811Z,98466.56
2023-03-10T08:36:08.026Z,98463.72
2023-03-10T08:38:35.129Z,98465.88
2023-03-10T08:41:10.012Z,98460.78
2023-03-10T08:43:36.657Z,98465.50
2023-03-10T08:46:03.274Z,98449.63
2023-03-10T08:48:29.955Z,98459.63
2023-03-10T08:50:57.869Z,98469.72
2023-03-10T08:53:25.164Z,98470.13
2023-03-10T08:55:51.752Z,98471.34
2023-03-10T08:58:18.338Z,98454.16
2023-03-10T09:00:45.132Z,98465.06
2023-03-10T09:03:13.776Z,98460.78
2023-03-10T09:05:41.961Z,98472.25
2023-03-10T09:08:08.776Z,98475.63
2023-03-10T09:10:37.099Z,98466.09
2023-03-10T09:13:13.373Z,98481.94
2023-03-10T09:15:41.577Z,98477.69
2023-03-10T09:18:12.802Z,98484.22
2023-03-10T09:20:40.281Z,98489.94
2023-03-10T09:23:07.833Z,98494.28
2023-03-10T09:25:34.507Z,98490.97
2023-03-10T09:28:01.146Z,98485.72
2023-03-10T09:30:27.771Z,98486.56
2023-03-10T09:32:57.014Z,98498.50
2023-03-10T09:35:23.790Z,98499.81
2023-03-10T09:37:50.709Z,98485.41
2023-03-10T09:40:20.794Z,98503.72
2023-03-10T09:42:49.245Z,98498.53
2023-03-10T09:45:23.384Z,98507.91
2023-03-10T09:48:06.231Z,98508.44
2023-03-10T09:50:49.965Z,98509.03
2023-03-10T09:53:44.060Z,98517.06
2023-03-10T09:56:13.461Z,98514.19
2023-03-10T09:58:44.021Z,98514.59
2023-03-10T10:01:16.976Z,98535.13
2023-03-10T10:03:53.814Z,98525.69
2023-03-10T10:06:30.712Z,98520.38
2023-03-10T10:09:05.305Z,98530.00
2023-03-10T10:11:34.044Z,98523.91
2023-03-10T10:14:22.454Z,98530.91
2023-03-10T10:17:14.243Z,98540.72
2023-03-10T10:19:41.183Z,98539.56
2023-03-10T10:22:13.165Z,98542.00
2023-03-10T10:24:40.712Z,98555.41
2023-03-10T10:27:07.305Z,98549.44
2023-03-10T10:29:36.651Z,98551.88
2023-03-10T10:32:12.844Z,98549.34
2023-03-10T10:34:41.680Z,98557.06
2023-03-10T10:37:34.005Z,98555.81
2023-03-10T10:40:02.233Z,98560.78
2023-03-10T10:42:31.015Z,98559.94
2023-03-10T10:45:00.179Z,98558.00
2023-03-10T10:47:35.254Z,98562.97
2023-03-10T10:50:27.566Z,98564.69
2023-03-10T10:53:34.391Z,98565.94
2023-03-10T10:56:06.534Z,98561.00
2023-03-10T10:58:34.366Z,98571.72
2023-03-10T11:01:09.813Z,98576.47
2023-03-10T11:03:40.504Z,98574.44
2023-03-10T11:06:14.785Z,98569.91
2023-03-10T11:08:45.135Z,98581.75
2023-03-10T11:11:33.669Z,98571.31
2023-03-10T11:14:24.877Z,98574.34
2023-03-10T11:17:27.325Z,98565.50
2023-03-10T11:20:07.083Z,98564.88
2023-03-10T11:22:39.844Z,98566.66
2023-03-10T11:25:23.343Z,98578.09
2023-03-10T11:28:12.133Z,98583.94
2023-03-10T11:30:43.699Z,98576.91
2023-03-10T11:33:16.173Z,98579.47
2023-03-10T11:35:49.489Z,98582.78
2023-03-10T11:38:30.765Z,98579.97
2023-03-10T11:40:59.350Z,98569.44
2023-03-10T11:43:51.009Z,98575.59
2023-03-10T11:46:44.590Z,98579.09
2023-03-10T11:49:12.686Z,98573.03
2023-03-10T11:51:50.050Z,98566.38
2023-03-10T11:54:27.086Z,98566.56
2023-03-10T11:56:54.372Z,98579.47
2023-03-10T11:59:27.118Z,98577.66
2023-03-10T12:02:24.640Z,98583.84
2023-03-10T12:04:54.516Z,98584.56
2023-03-10T12:07:40.261Z,98577.94
2023-03-10T12:10:12.911Z,98582.03
2023-03-10T12:12:44.862Z,98580.91
2023-03-10T12:15:23.621Z,98579.84
2023-03-10T12:17:51.671Z,98570.06
2023-03-10T12:20:18.152Z,98569.47
2023-03-10T12:22:55.319Z,98568.53
2023-03-10T12:25:27.888Z,98572.53
2023-03-10T12:28:18.925Z,98579.38
2023-03-10T12:31:22.774Z,98575.38
2023-03-10T12:33:50.590Z,98575.38
2023-03-10T12:36:37.834Z,98577.88
2023-03-10T12:39:30.346Z,98577.19
2023-03-10T12:42:26.921Z,98572.53
2023-03-10T12:44:58.112Z,98573.69
2023-03-10T12:47:35.279Z,98574.84
2023-03-10T12:50:20.269Z,98564.38
2023-03-10T12:52:53.260Z,98564.88
2023-03-10T12:55:22.672Z,98566.22
2023-03-10T12:58:04.354Z,98553.59
2023-03-10T13:00:50.901Z,98554.44
2023-03-10T13:03:43.550Z,98559.88
2023-03-10T13:06:20.991Z,98571.25
2023-03-10T13:09:10.138Z,98561.50
2023-03-10T13:11:43.160Z,98561.97
2023-03-10T13:14:13.280Z,98563.25
2023-03-10T13:16:39.943Z,98557.66
2023-03-10T13:19:06.690Z,98573.47
2023-03-10T13:21:38.140Z,98566.66
2023-03-10T13:24:28.922Z,98559.44
2023-03-10T13:27:18.962Z,98565.78
2023-03-10T13:30:05.735Z,98563.38
2023-03-10T13:32:33.015Z,98549.63
2023-03-10T13:35:13.017Z,98547.56
2023-03-10T13:37:39.596Z,98548.06
2023-03-10T13:40:10.980Z,98554.25
2023-03-10T13:42:44.356Z,98565.59
2023-03-10T13:45:22.352Z,98572.22
2023-03-10T13:47:49.793Z,98568.31
2023-03-10T13:50:17.063Z,98557.06
2023-03-10T13:52:54.860Z,98560.97
2023-03-10T13:55:21.533Z,98561.25
2023-03-10T13:57:48.528Z,98558.69
2023-03-10T14:00:20.783Z,98554.94
2023-03-10T14:02:48.811Z,98565.72
2023-03-10T14:05:41.728Z,98562.56
2023-03-10T14:08:17.868Z,98551.88
2023-03-10T14:10:46.009Z,98553.38
2023-03-10T14:13:38.622Z,98549.72
2023-03-10T14:16:05.424Z,98557.75
2023-03-10T14:18:37.081Z,98543.50
2023-03-10T14:21:23.428Z,98535.22
2023-03-10T14:23:51.871Z,98532.38
2023-03-10T14:26:18.451Z,98530.03
2023-03-10T14:28:45.149Z,98519.16
2023-03-10T14:31:21.160Z,98531.00
2023-03-10T14:33:48.067Z,98512.16
2023-03-10T14:36:14.681Z,98522.56
2023-03-10T14:38:41.484Z,98522.81
2023-03-10T14:41:08.141Z,98514.91
2023-03-10T14:43:35.664Z,98516.66
2023-03-10T14:46:02.643Z,98520.31
2023-03-10T14:48:31.084Z,98535.72
2023-03-10T14:50:57.649Z,98525.75
2023-03-10T14:53:25.931Z,98537.81
2023-03-10T14:55:55.437Z,98539.81
2023-03-10T14:58:24.475Z,98543.88
2023-03-10T15:00:51.103Z,98534.59
2023-03-10T15:03:17.713Z,98541.16
2023-03-10T15:05:48.644Z,98541.06
2023-03-10T15:08:16.851Z,98537.28
2023-03-10T15:10:48.146Z,98539.25
2023-03-10T15:13:15.158Z,98525.06
2023-03-10T15:15:43.643Z,98524.59
2023-03-10T15:18:16.217Z,98533.56
2023-03-10T15:20:42.868Z,98547.75
2023-03-10T15:23:10.155Z,98541.31
2023-03-10T15:25:37.894Z,98551.50
2023-03-10T15:28:04.505Z,98559.69
2023-03-10T15:30:34.051Z,98592.88
2023-03-10T15:33:01.294Z,98579.63
2023-03-10T15:35:29.323Z,98564.59
2023-03-10T15:37:56.984Z,98560.91
2023-03-10T15:40:30.812Z,98560.06
2023-03-10T15:42:58.359Z,98555.53
2023-03-10T15:45:26.681Z,98549.97
2023-03-10T15:47:53.374Z,98549.81
2023-03-10T15:50:20.907Z,98554.84
2023-03-10T15:53:05.794Z,98559.97
2023-03-10T15:55:32.553Z,98553.38
2023-03-10T15:57:59.173Z,98567.13
2023-03-10T16:00:26.524Z,98562.31
2023-03-10T16:02:53.169Z,98561.81
2023-03-10T16:05:19.755Z,98570.31
2023-03-10T16:07:46.648Z,98562.88
2023-03-10T16:10:15.622Z,98562.31
2023-03-10T16:12:42.360Z,98556.44
2023-03-10T16:15:09.869Z,98560.84
2023-03-10T16:17:36.615Z,98576.75
2023-03-10T16:20:08.963Z,98582.00
2023-03-10T16:22:40.366Z,98588.03
2023-03-10T16:25:17.705Z,98585.38
2023-03-10T16:27:45.686Z,98580.00
2023-03-10T16:30:14.602Z,98574.13
2023-03-10T16:32:45.212Z,98566.69
2023-03-10T16:35:12.173Z,98568.34
2023-03-10T16:37:38.806Z,98563.09
2023-03-10T16:40:06.235Z,98557.09
2023-03-10T16:42:35.921Z,98559.56
2023-03-10T16:45:03.777Z,98556.22
2023-03-10T16:47:30.421Z,98546.50
2023-03-10T16:49:57.140Z,98547.00
2023-03-10T16:52:23.770Z,98551.75
2023-03-10T16:54:50.365Z,98565.88
2023-03-10T16:57:16.972Z,98554.41
2023-03-10T16:59:44.739Z,98552.94
2023-03-10T17:02:16.151Z,98560.66
2023-03-10T17:04:43.203Z,98559.53
2023-03-10T17:07:09.791Z,98564.34
2023-03-10T17:09:38.036Z,98570.59
2023-03-10T17:12:05.066Z,98585.97
2023-03-10T17:14:31.668Z,98580.25
2023-03-10T17:16:58.437Z,98572.56
2023-03-10T17:19:29.876Z,98563.16
2023-03-10T17:21:57.540Z,98566.28
2023-03-10T17:24:24.361Z,98569.09
2023-03-10T17:26:50.953Z,98564.88
2023-03-10T17:29:18.163Z,98571.91
2023-03-10T17:31:48.927Z,98567.41
2023-03-10T17:34:15.724Z,98569.84
2023-03-10T17:36:42.289Z,98568.72
2023-03-10T17:39:08.936Z,98568.81
2023-03-10T17:41:36.196Z,98565.59
2023-03-10T17:44:04.809Z,98554.78
2023-03-10T17:46:31.840Z,98559.28
2023-03-10T17:48:58.448Z,98557.38
2023-03-10T17:51:27.361Z,98550.22
2023-03-10T17:53:58.298Z,98564.38
2023-03-10T17:56:25.773Z,98563.47
2023-03-10T17:58:56.096Z,98551.94
2023-03-10T18:01:26.579Z,98563.38
2023-03-10T18:03:54.150Z,98566.22
2023-03-10T18:06:22.745Z,98563.88
2023-03-10T18:08:50.236Z,98560.72
2023-03-10T18:11:17.581Z,98559.56
2023-03-10T18:13:44.545Z,98569.97
2023-03-10T18:16:17.639Z,98568.56
2023-03-10T18:18:45.036Z,98552.06
2023-03-10T18:21:12.959Z,98556.22
2023-03-10T18:23:39.553Z,98542.28
2023-03-10T18:26:10.489Z,98545.56
2023-03-10T18:28:37.637Z,98543.06
2023-03-10T18:31:09.560Z,98538.97
2023-03-10T18:33:37.202Z,98538.88
2023-03-10T18:36:06.112Z,98538.38
2023-03-10T18:38:33.346Z,98540.66
2023-03-10T18:41:01.430Z,98534.06
2023-03-10T18:43:29.385Z,98538.97
2023-03-10T18:45:56.186Z,98540.41
2023-03-10T18:48:25.726Z,98547.28
2023-03-10T18:50:52.912Z,98537.97
2023-03-10T18:53:19.712Z,98543.78
2023-03-10T18:55:46.503Z,98533.91
2023-03-10T18:58:13.260Z,98543.78
2023-03-10T19:00:40.228Z,98539.19
2023-03-10T19:03:07.392Z,98542.19
2023-03-10T19:05:34.170Z,98532.13
2023-03-10T19:08:00.741Z,98529.63
2023-03-10T19:10:27.364Z,98519.28
2023-03-10T19:12:54.161Z,98533.03
2023-03-10T19:15:20.808Z,98530.28
2023-03-10T19:17:47.443Z,98529.75
2023-03-10T19:20:14.761Z,98526.28
2023-03-10T19:22:42.415Z,98522.09
2023-03-10T19:25:12.087Z,98523.19
2023-03-10T19:27:42.138Z,98528.97
2023-03-10T19:30:11.175Z,98517.78
2023-03-10T19:32:41.046Z,98518.75
2023-03-10T19:35:08.969Z,98505.97
2023-03-10T19:37:36.747Z,98515.56
2023-03-10T19:40:06.135Z,98510.31
2023-03-10T19:42:34.279Z,98513.28
2023-03-10T19:45:01.330Z,98506.16
2023-03-10T19:47:30.959Z,98513.69
2023-03-10T19:49:57.519Z,98503.06
2023-03-10T19:52:24.129Z,98502.28
2023-03-10T19:54:51.304Z,98497.38
2023-03-10T19:57:18.040Z,98500.78
2023-03-10T19:59:44.591Z,98491.00
2023-03-10T20:02:13.714Z,98499.44
2023-03-10T20:04:40.574Z,98493.13
2023-03-10T20:07:07.200Z,98494.66
2023-03-10T20:09:34.048Z,98487.16
2023-03-10T20:12:00.644Z,98487.72
2023-03-10T20:14:27.687Z,98486.66
2023-03-10T20:16:54.926Z,98484.63
2023-03-10T20:19:22.918Z,98493.19
2023-03-10T20:21:50.623Z,98482.16
2023-03-10T20:24:18.047Z,98480.19
2023-03-10T20:26:45.042Z,98470.25
2023-03-10T20:29:12.450Z,98472.00
2023-03-10T20:31:39.101Z,98475.72
2023-03-10T20:34:08.057Z,98480.34
2023-03-10T20:36:34.621Z,98474.78
2023-03-10T20:39:01.170Z,98481.34
2023-03-10T20:41:27.802Z,98480.34
2023-03-10T20:43:55.332Z,98482.91
2023-03-10T20:46:22.917Z,98477.75
2023-03-10T20:48:50.692Z,98476.91
2023-03-10T20:51:19.157Z,98474.91
2023-03-10T20:53:45.932Z,98467.59
2023-03-10T20:56:14.324Z,98473.16
2023-03-10T20:58:41.128Z,98475.63
2023-03-10T21:01:14.784Z,98478.94
2023-03-10T21:03:41.422Z,98467.06
2023-03-10T21:06:08.081Z,98479.47
2023-03-10T21:08:34.852Z,98478.59
2023-03-10T21:11:01.410Z,98465.78
2023-03-10T21:13:28.282Z,98469.00
2023-03-10T21:15:54.954Z,98464.78
2023-03-10T21:18:21.588Z,98462.69
2023-03-10T21:20:48.174Z,98466.41
2023-03-10T21:23:14.755Z,98468.09
2023-03-10T21:25:41.761Z,98465.03
2023-03-10T21:28:08.726Z,98464.72
2023-03-10T21:30:35.397Z,98461.00
2023-03-10T21:33:02.012Z,98464.56
2023-03-10T21:35:31.955Z,98469.59
2023-03-10T21:37:59.481Z,98465.50
2023-03-10T21:40:26.730Z,98466.81
2023-03-10T21:42:53.304Z,98458.59
2023-03-10T21:45:21.873Z,98456.72
2023-03-10T21:47:48.564Z,98440.41
2023-03-10T21:50:16.035Z,98449.19
2023-03-10T21:52:43.285Z,98434.13
2023-03-10T21:55:23.039Z,98451.88
2023-03-10T21:57:50.034Z,98447.91
2023-03-10T22:00:19.865Z,98453.31
2023-03-10T22:02:47.366Z,98452.06
2023-03-10T22:05:16.560Z,98442.69
2023-03-10T22:07:43.435Z,98437.41
2023-03-10T22:10:11.427Z,98435.03
2023-03-10T22:12:38.158Z,98432.06
2023-03-10T22:15:06.804Z,98437.25
2023-03-10T22:17:33.771Z,98436.19
2023-03-10T22:20:01.766Z,98440.06
2023-03-10T22:22:28.339Z,98438.56
2023-03-10T22:24:55.010Z,98454.56
2023-03-10T22:27:21.574Z,98435.81
2023-03-10T22:29:48.184Z,98430.00
2023-03-10T22:32:14.830Z,98448.50
2023-03-10T22:34:42.237Z,98446.97
2023-03-10T22:37:10.399Z,98448.97
2023-03-10T22:39:37.490Z,98452.91
2023-03-10T22:42:04.899Z,98452.19
2023-03-10T22:44:36.400Z,98445.91
2023-03-10T22:47:03.612Z,98444.97
2023-03-10T22:49:31.501Z,98435.59
2023-03-10T22:51:58.408Z,98447.97
2023-03-10T22:54:25.292Z,98443.13
2023-03-10T22:56:52.007Z,98452.09
2023-03-10T22:59:22.893Z,98436.16
2023-03-10T23:01:49.629Z,98457.81
2023-03-10T23:04:16.267Z,98454.34
2023-03-10T23:06:42.948Z,98457.34
2023-03-10T23:09:10.970Z,98460.16
2023-03-10T23:11:38.007Z,98450.06
2023-03-10T23:14:04.564Z,98459.25
2023-03-10T23:16:36.632Z,98463.28
2023-03-10T23:19:06.074Z,98462.28
2023-03-10T23:21:35.089Z,98467.84
2023-03-10T23:24:01.767Z,98467.81
2023-03-10T23:26:34.183Z,98474.25
2023-03-10T23:29:02.972Z,98488.84
2023-03-10T23:31:29.634Z,98485.13
2023-03-10T23:33:56.236Z,98492.38
2023-03-10T23:36:22.954Z,98515.63
2023-03-10T23:38:50.723Z,98504.66
2023-03-10T23:41:18.487Z,98544.03
2023-03-10T23:43:45.195Z,98524.06
2023-03-10T23:46:11.943Z,98539.91
2023-03-10T23:48:38.728Z,98552.59
2023-03-10T23:51:05.509Z,98548.31
2023-03-10T23:53:32.143Z,98572.09
2023-03-10T23:55:59.034Z,98586.53
2023-03-10T23:58:28.066Z,98599.84
